createdAt,value
2023-02-22T00:00:48.366Z,4.17
2023-02-22T00:03:26.967Z,4.55
2023-02-22T00:06:02.187Z,5.03
2023-02-22T00:08:36.252Z,4.72
2023-02-22T00:11:10.350Z,4.35
2023-02-22T00:13:43.539Z,3.92
2023-02-22T00:16:19.765Z,4.08
2023-02-22T00:18:54.733Z,4.53
2023-02-22T00:21:30.116Z,3.52
2023-02-22T00:24:08.074Z,3.90
2023-02-22T00:26:39.919Z,3.60
2023-02-22T00:29:11.911Z,3.80
2023-02-22T00:31:43.959Z,3.90
2023-02-22T00:34:17.538Z,3.72
2023-02-22T00:36:50.922Z,3.70
2023-02-22T00:39:22.955Z,3.70
2023-02-22T00:41:54.723Z,3.52
2023-02-22T00:44:30.601Z,4.22
2023-02-22T00:47:01.135Z,3.37
2023-02-22T00:49:33.781Z,3.80
2023-02-22T00:52:04.936Z,3.47
2023-02-22T00:54:36.018Z,3.42
2023-02-22T00:57:11.554Z,3.77
2023-02-22T00:59:46.199Z,3.72
2023-02-22T01:02:17.659Z,4.15
2023-02-22T01:04:48.863Z,4.03
2023-02-22T01:07:22.491Z,3.85
2023-02-22T01:09:53.927Z,3.47
2023-02-22T01:12:27.417Z,3.22
2023-02-22T01:14:58.194Z,3.87
2023-02-22T01:17:33.916Z,3.87
2023-02-22T01:20:05.155Z,3.50
2023-02-22T01:22:38.209Z,3.40
2023-02-22T01:25:12.083Z,3.42
2023-02-22T01:27:42.607Z,3.52
2023-02-22T01:30:17.775Z,3.25
2023-02-22T01:32:48.561Z,4.25
2023-02-22T01:35:21.687Z,4.12
2023-02-22T01:37:54.955Z,4.35
2023-02-22T01:40:30.003Z,4.87
2023-02-22T01:43:06.557Z,4.90
2023-02-22T01:45:48.329Z,4.33
2023-02-22T01:48:45.731Z,4.12
2023-02-22T01:51:22.703Z,3.90
2023-02-22T01:54:16.475Z,4.65
2023-02-22T01:56:54.075Z,3.75
2023-02-22T01:59:26.176Z,4.03
2023-02-22T02:02:00.253Z,3.72
2023-02-22T02:04:40.419Z,4.37
2023-02-22T02:07:17.499Z,4.12
2023-02-22T02:09:59.797Z,3.80
2023-02-22T02:12:33.507Z,4.85
2023-02-22T02:15:27.314Z,4.85
2023-02-22T02:18:04.137Z,4.87
2023-02-22T02:20:50.611Z,5.55
2023-02-22T02:23:25.192Z,5.03
2023-02-22T02:26:13.274Z,5.15
2023-02-22T02:28:56.861Z,5.40
2023-02-22T02:31:40.899Z,4.90
2023-02-22T02:34:23.829Z,4.58
2023-02-22T02:37:13.973Z,5.08
2023-02-22T02:39:54.615Z,4.05
2023-02-22T02:42:28.089Z,4.70
2023-02-22T02:45:05.310Z,4.08
2023-02-22T02:47:45.657Z,4.25
2023-02-22T02:50:33.789Z,3.87
2023-02-22T02:53:08.348Z,4.72
2023-02-22T02:55:41.072Z,4.47
2023-02-22T02:58:20.037Z,4.87
2023-02-22T03:00:57.593Z,4.00
2023-02-22T03:03:37.612Z,4.12
2023-02-22T03:06:35.466Z,4.42
2023-02-22T03:09:30.168Z,4.12
2023-02-22T03:12:24.713Z,4.10
2023-02-22T03:15:08.315Z,3.70
2023-02-22T03:17:53.806Z,4.05
2023-02-22T03:20:43.204Z,4.12
2023-02-22T03:23:25.804Z,3.90
2023-02-22T03:26:00.136Z,4.30
2023-02-22T03:28:32.816Z,5.20
2023-02-22T03:31:16.751Z,4.95
2023-02-22T03:33:55.048Z,4.33
2023-02-22T03:36:35.973Z,4.70
2023-02-22T03:39:09.499Z,4.83
2023-02-22T03:41:41.351Z,5.00
2023-02-22T03:44:17.645Z,4.40
2023-02-22T03:46:52.912Z,3.58
2023-02-22T03:49:36.554Z,4.72
2023-02-22T03:52:12.794Z,4.10
2023-02-22T03:54:45.442Z,3.70
2023-02-22T03:57:19.199Z,3.50
2023-02-22T03:59:53.802Z,3.87
2023-02-22T04:02:24.277Z,3.80
2023-02-22T04:04:56.488Z,4.00
2023-02-22T04:07:26.931Z,4.45
2023-02-22T04:09:58.585Z,4.95
2023-02-22T04:12:30.486Z,4.35
2023-02-22T04:15:04.296Z,4.60
2023-02-22T04:17:36.225Z,4.67
2023-02-22T04:20:07.331Z,4.65
2023-02-22T04:22:37.830Z,4.25
2023-02-22T04:25:08.927Z,4.37
2023-02-22T04:27:39.420Z,5.65
2023-02-22T04:30:11.108Z,5.25
2023-02-22T04:32:41.612Z,4.50
2023-02-22T04:35:14.777Z,4.60
2023-02-22T04:37:46.891Z,4.58
2023-02-22T04:40:18.262Z,4.12
2023-02-22T04:42:56.127Z,4.92
2023-02-22T04:45:28.174Z,4.17
2023-02-22T04:47:58.478Z,4.53
2023-02-22T04:50:31.525Z,4.37
2023-02-22T04:53:03.283Z,4.10
2023-02-22T04:55:34.544Z,4.17
2023-02-22T04:58:08.735Z,4.53
2023-02-22T05:00:40.981Z,4.90
2023-02-22T05:03:13.809Z,4.50
2023-02-22T05:05:44.783Z,4.00
2023-02-22T05:08:15.172Z,4.37
2023-02-22T05:10:46.829Z,4.78
2023-02-22T05:13:21.113Z,4.17
2023-02-22T05:15:53.302Z,4.42
2023-02-22T05:18:23.990Z,4.35
2023-02-22T05:20:57.145Z,4.87
2023-02-22T05:23:27.732Z,4.60
2023-02-22T05:25:58.371Z,4.97
2023-02-22T05:28:29.293Z,4.80
2023-02-22T05:30:59.820Z,4.28
2023-02-22T05:33:30.309Z,4.35
2023-02-22T05:36:01.899Z,5.10
2023-02-22T05:38:33.092Z,5.00
2023-02-22T05:41:04.421Z,5.65
2023-02-22T05:43:35.278Z,4.33
2023-02-22T05:46:08.551Z,5.17
2023-02-22T05:48:40.532Z,4.40
2023-02-22T05:51:11.329Z,4.97
2023-02-22T05:53:42.666Z,5.37
2023-02-22T05:56:13.158Z,5.00
2023-02-22T05:58:43.712Z,4.50
2023-02-22T06:01:16.625Z,4.62
2023-02-22T06:03:52.016Z,4.62
2023-02-22T06:06:22.737Z,4.65
2023-02-22T06:08:54.737Z,4.72
2023-02-22T06:11:27.119Z,4.85
2023-02-22T06:13:57.530Z,4.72
2023-02-22T06:16:29.893Z,5.12
2023-02-22T06:19:00.600Z,4.87
2023-02-22T06:21:31.345Z,4.17
2023-02-22T06:24:04.494Z,4.83
2023-02-22T06:26:36.453Z,4.78
2023-02-22T06:29:09.350Z,4.87
2023-02-22T06:31:40.045Z,4.78
2023-02-22T06:34:11.712Z,4.50
2023-02-22T06:36:44.687Z,4.47
2023-02-22T06:39:16.783Z,4.83
2023-02-22T06:41:52.184Z,4.80
2023-02-22T06:44:22.871Z,4.60
2023-02-22T06:46:54.508Z,5.83
2023-02-22T06:49:25.949Z,4.45
2023-02-22T06:51:57.457Z,5.35
2023-02-22T06:54:30.645Z,4.78
2023-02-22T06:57:01.409Z,4.75
2023-02-22T06:59:32.296Z,5.28
2023-02-22T07:02:05.614Z,6.12
2023-02-22T07:04:37.236Z,6.75
2023-02-22T07:07:07.941Z,7.90
2023-02-22T07:09:38.400Z,6.45
2023-02-22T07:12:09.174Z,6.42
2023-02-22T07:14:39.895Z,6.03
2023-02-22T07:17:11.513Z,6.25
2023-02-22T07:19:43.228Z,6.22
2023-02-22T07:22:14.059Z,5.97
2023-02-22T07:24:50.095Z,6.15
2023-02-22T07:27:20.617Z,6.42
2023-02-22T07:29:54.223Z,6.65
2023-02-22T07:32:24.867Z,6.50
2023-02-22T07:34:56.023Z,6.20
2023-02-22T07:37:26.529Z,6.58
2023-02-22T07:39:57.805Z,10.30
2023-02-22T07:42:28.397Z,5.97
2023-02-22T07:44:59.253Z,7.42
2023-02-22T07:47:31.355Z,6.65
2023-02-22T07:50:02.782Z,7.60
2023-02-22T07:52:34.291Z,6.90
2023-02-22T07:55:07.944Z,7.65
2023-02-22T07:57:40.146Z,8.75
2023-02-22T08:00:12.034Z,10.23
2023-02-22T08:02:51.234Z,10.98
2023-02-22T08:05:23.783Z,10.88
2023-02-22T08:07:54.478Z,11.35
2023-02-22T08:10:28.217Z,11.93
2023-02-22T08:13:02.762Z,11.53
2023-02-22T08:15:37.843Z,10.82
2023-02-22T08:18:15.007Z,11.78
2023-02-22T08:20:47.566Z,12.37
2023-02-22T08:23:26.458Z,11.55
2023-02-22T08:25:58.064Z,11.15
2023-02-22T08:28:29.543Z,10.95
2023-02-22T08:31:00.368Z,10.45
2023-02-22T08:33:31.658Z,10.90
2023-02-22T08:36:03.816Z,9.55
2023-02-22T08:38:38.328Z,9.53
2023-02-22T08:41:11.114Z,11.28
2023-02-22T08:43:41.645Z,10.23
2023-02-22T08:46:15.411Z,9.35
2023-02-22T08:48:53.053Z,9.48
2023-02-22T08:51:23.897Z,8.63
2023-02-22T08:53:58.956Z,8.88
2023-02-22T08:56:30.257Z,6.50
2023-02-22T08:59:02.173Z,7.40
2023-02-22T09:01:35.342Z,5.40
2023-02-22T09:04:06.359Z,5.08
2023-02-22T09:06:37.564Z,5.85
2023-02-22T09:09:13.712Z,6.00
2023-02-22T09:11:44.459Z,6.08
2023-02-22T09:14:17.939Z,6.12
2023-02-22T09:16:49.603Z,5.95
2023-02-22T09:19:20.455Z,5.40
2023-02-22T09:22:00.401Z,5.50
2023-02-22T09:24:31.345Z,5.85
2023-02-22T09:27:04.605Z,5.37
2023-02-22T09:29:36.843Z,5.22
2023-02-22T09:32:07.885Z,5.80
2023-02-22T09:34:39.453Z,5.62
2023-02-22T09:37:10.448Z,4.72
2023-02-22T09:39:42.005Z,5.12
2023-02-22T09:42:21.430Z,5.28
2023-02-22T09:45:06.640Z,4.50
2023-02-22T09:47:45.322Z,5.08
2023-02-22T09:50:23.590Z,5.45
2023-02-22T09:53:19.717Z,4.75
2023-02-22T09:55:53.060Z,5.37
2023-02-22T09:58:39.729Z,4.37
2023-02-22T10:01:27.191Z,5.50
2023-02-22T10:04:29.331Z,4.28
2023-02-22T10:07:08.428Z,4.78
2023-02-22T10:09:43.685Z,4.92
2023-02-22T10:12:17.280Z,4.78
2023-02-22T10:14:56.565Z,5.15
2023-02-22T10:17:40.300Z,5.20
2023-02-22T10:20:24.094Z,4.12
2023-02-22T10:23:12.215Z,4.58
2023-02-22T10:25:47.186Z,4.17
2023-02-22T10:28:21.277Z,4.08
2023-02-22T10:30:59.155Z,4.05
2023-02-22T10:33:34.431Z,4.28
2023-02-22T10:36:06.293Z,4.37
2023-02-22T10:38:40.340Z,4.50
2023-02-22T10:41:14.518Z,4.72
2023-02-22T10:43:46.303Z,4.60
2023-02-22T10:46:20.290Z,4.92
2023-02-22T10:48:54.651Z,4.08
2023-02-22T10:51:26.618Z,4.33
2023-02-22T10:54:27.001Z,4.67
2023-02-22T10:57:04.476Z,4.58
2023-02-22T10:59:37.950Z,4.08
2023-02-22T11:02:20.755Z,4.08
2023-02-22T11:04:54.202Z,4.62
2023-02-22T11:07:33.726Z,4.10
2023-02-22T11:10:09.759Z,4.60
2023-02-22T11:12:43.880Z,4.60
2023-02-22T11:15:23.234Z,4.40
2023-02-22T11:17:58.574Z,5.15
2023-02-22T11:20:33.626Z,4.30
2023-02-22T11:23:08.653Z,4.42
2023-02-22T11:25:43.838Z,4.67
2023-02-22T11:28:33.567Z,4.22
2023-02-22T11:31:17.325Z,3.87
2023-02-22T11:33:57.655Z,4.53
2023-02-22T11:36:38.894Z,4.40
2023-02-22T11:39:28.655Z,4.60
2023-02-22T11:41:59.153Z,4.60
2023-02-22T11:44:34.213Z,4.60
2023-02-22T11:47:09.157Z,4.55
2023-02-22T11:49:42.756Z,4.47
2023-02-22T11:52:35.231Z,4.17
2023-02-22T11:55:40.121Z,4.00
2023-02-22T11:58:01.680Z,4.80
2023-02-22T12:00:44.089Z,4.28
2023-02-22T12:03:46.442Z,4.10
2023-02-22T12:06:24.447Z,3.80
2023-02-22T12:09:18.493Z,3.80
2023-02-22T12:12:06.775Z,3.45
2023-02-22T12:14:46.153Z,3.35
2023-02-22T12:17:23.480Z,3.45
2023-02-22T12:19:57.045Z,3.37
2023-02-22T12:22:37.979Z,3.42
2023-02-22T12:25:20.797Z,4.12
2023-02-22T12:28:00.219Z,4.65
2023-02-22T12:30:38.701Z,4.10
2023-02-22T12:33:14.815Z,4.40
2023-02-22T12:35:51.029Z,3.50
2023-02-22T12:38:26.040Z,3.65
2023-02-22T12:41:18.448Z,3.90
2023-02-22T12:43:56.217Z,3.75
2023-02-22T12:46:39.989Z,3.67
2023-02-22T12:49:31.213Z,4.42
2023-02-22T12:52:22.019Z,3.90
2023-02-22T12:54:57.833Z,3.77
2023-02-22T12:58:04.567Z,3.45
2023-02-22T13:00:54.924Z,3.20
2023-02-22T13:03:40.149Z,3.67
2023-02-22T13:06:25.773Z,3.65
2023-02-22T13:09:15.186Z,3.72
2023-02-22T13:12:07.521Z,3.58
2023-02-22T13:14:41.419Z,3.22
2023-02-22T13:17:42.713Z,3.65
2023-02-22T13:20:31.388Z,3.25
2023-02-22T13:23:12.352Z,3.62
2023-02-22T13:26:03.650Z,3.27
2023-02-22T13:28:46.417Z,3.65
2023-02-22T13:31:21.108Z,2.83
2023-02-22T13:34:17.860Z,3.00
2023-02-22T13:37:06.398Z,3.55
2023-02-22T13:39:45.732Z,3.65
2023-02-22T13:42:35.617Z,3.60
2023-02-22T13:45:37.676Z,3.60
2023-02-22T13:48:22.726Z,4.03
2023-02-22T13:50:58.805Z,3.27
2023-02-22T13:53:35.040Z,2.80
2023-02-22T13:56:08.758Z,3.02
2023-02-22T13:59:02.803Z,2.80
2023-02-22T14:01:49.212Z,3.45
2023-02-22T14:04:29.275Z,2.90
2023-02-22T14:07:12.481Z,3.42
2023-02-22T14:09:51.285Z,3.12
2023-02-22T14:12:34.781Z,3.42
2023-02-22T14:15:29.818Z,3.10
2023-02-22T14:18:09.287Z,3.55
2023-02-22T14:20:42.442Z,3.08
2023-02-22T14:23:31.484Z,3.55
2023-02-22T14:26:30.236Z,3.40
2023-02-22T14:29:18.560Z,3.70
2023-02-22T14:31:52.180Z,4.08
2023-02-22T14:34:53.299Z,3.77
2023-02-22T14:37:39.265Z,4.00
2023-02-22T14:40:24.631Z,3.77
2023-02-22T14:43:07.329Z,3.47
2023-02-22T14:45:45.437Z,4.05
2023-02-22T14:48:25.212Z,3.05
2023-02-22T14:51:20.769Z,3.70
2023-02-22T14:53:46.632Z,3.72
2023-02-22T14:56:25.615Z,3.30
2023-02-22T14:59:25.194Z,4.40
2023-02-22T15:02:19.909Z,3.90
2023-02-22T15:04:56.709Z,3.60
2023-02-22T15:07:32.008Z,3.92
2023-02-22T15:10:27.751Z,4.12
2023-02-22T15:13:13.142Z,3.52
2023-02-22T15:15:49.098Z,3.45
2023-02-22T15:18:32.427Z,3.50
2023-02-22T15:21:13.605Z,3.58
2023-02-22T15:23:59.268Z,3.22
2023-02-22T15:26:39.708Z,3.95
2023-02-22T15:29:19.273Z,3.87
2023-02-22T15:31:53.022Z,4.42
2023-02-22T15:34:27.091Z,3.40
2023-02-22T15:37:00.542Z,3.33
2023-02-22T15:39:38.878Z,3.90
2023-02-22T15:42:22.961Z,3.92
2023-02-22T15:44:56.081Z,4.17
2023-02-22T15:47:32.987Z,3.80
2023-02-22T15:50:27.316Z,4.67
2023-02-22T15:53:12.172Z,4.25
2023-02-22T15:55:49.539Z,4.05
2023-02-22T15:58:30.210Z,4.45
2023-02-22T16:01:17.717Z,4.83
2023-02-22T16:03:51.297Z,4.87
2023-02-22T16:06:40.305Z,4.20
2023-02-22T16:09:16.587Z,3.87
2023-02-22T16:11:49.646Z,4.28
2023-02-22T16:14:42.628Z,3.50
2023-02-22T16:17:15.768Z,3.42
2023-02-22T16:19:49.717Z,3.25
2023-02-22T16:22:32.305Z,3.37
2023-02-22T16:25:28.633Z,3.35
2023-02-22T16:28:04.001Z,3.10
2023-02-22T16:30:42.203Z,3.30
2023-02-22T16:33:15.071Z,3.05
2023-02-22T16:35:50.742Z,3.50
2023-02-22T16:38:22.680Z,3.22
2023-02-22T16:40:56.060Z,3.10
2023-02-22T16:43:32.052Z,3.20
2023-02-22T16:46:04.366Z,3.50
2023-02-22T16:48:40.083Z,3.65
2023-02-22T16:51:18.361Z,3.70
2023-02-22T16:53:50.743Z,2.98
2023-02-22T16:56:26.328Z,3.12
2023-02-22T16:58:58.558Z,3.70
2023-02-22T17:01:31.049Z,3.80
2023-02-22T17:04:02.954Z,3.58
2023-02-22T17:06:33.698Z,4.30
2023-02-22T17:09:05.602Z,4.47
2023-02-22T17:11:37.990Z,4.17
2023-02-22T17:14:10.027Z,3.17
2023-02-22T17:16:41.015Z,3.60
2023-02-22T17:19:17.475Z,4.20
2023-02-22T17:21:49.813Z,3.80
2023-02-22T17:24:27.758Z,4.22
2023-02-22T17:26:59.830Z,4.00
2023-02-22T17:29:31.655Z,3.50
2023-02-22T17:32:02.825Z,3.80
2023-02-22T17:34:36.468Z,3.90
2023-02-22T17:37:07.383Z,3.85
2023-02-22T17:39:39.543Z,4.70
2023-02-22T17:42:14.188Z,4.55
2023-02-22T17:44:45.073Z,4.45
2023-02-22T17:47:17.909Z,4.30
2023-02-22T17:49:49.032Z,4.03
2023-02-22T17:52:21.618Z,3.90
2023-02-22T17:54:53.579Z,3.92
2023-02-22T17:57:25.560Z,4.42
2023-02-22T17:59:57.178Z,3.65
2023-02-22T18:02:28.570Z,4.00
2023-02-22T18:04:59.090Z,3.80
2023-02-22T18:07:32.433Z,3.95
2023-02-22T18:10:05.980Z,4.28
2023-02-22T18:12:40.567Z,4.55
2023-02-22T18:15:12.233Z,3.62
2023-02-22T18:17:44.905Z,3.98
2023-02-22T18:20:18.703Z,4.28
2023-02-22T18:22:50.474Z,3.83
2023-02-22T18:25:25.756Z,3.65
2023-02-22T18:27:56.830Z,3.72
2023-02-22T18:30:30.603Z,3.70
2023-02-22T18:33:03.604Z,3.45
2023-02-22T18:35:35.979Z,3.92
2023-02-22T18:38:12.431Z,3.83
2023-02-22T18:40:44.871Z,3.90
2023-02-22T18:43:20.907Z,3.70
2023-02-22T18:45:55.061Z,3.72
2023-02-22T18:48:27.908Z,3.97
2023-02-22T18:51:02.232Z,3.92
2023-02-22T18:53:36.479Z,3.60
2023-02-22T18:56:09.222Z,4.00
2023-02-22T18:58:42.304Z,4.50
2023-02-22T19:01:20.645Z,4.25
2023-02-22T19:03:51.966Z,3.60
2023-02-22T19:06:25.124Z,3.70
2023-02-22T19:08:56.694Z,3.80
2023-02-22T19:11:29.609Z,3.40
2023-02-22T19:14:00.558Z,3.67
2023-02-22T19:16:31.997Z,3.17
2023-02-22T19:19:05.425Z,3.12
2023-02-22T19:21:37.645Z,3.52
2023-02-22T19:24:09.908Z,5.53
2023-02-22T19:26:43.778Z,3.92
2023-02-22T19:29:14.387Z,4.22
2023-02-22T19:31:48.470Z,4.37
2023-02-22T19:34:24.191Z,3.95
2023-02-22T19:36:55.901Z,4.12
2023-02-22T19:39:28.920Z,4.37
2023-02-22T19:42:00.596Z,4.05
2023-02-22T19:44:31.085Z,3.90
2023-02-22T19:47:05.265Z,4.80
2023-02-22T19:49:40.374Z,4.12
2023-02-22T19:52:12.105Z,4.55
2023-02-22T19:54:42.904Z,5.03
2023-02-22T19:57:14.166Z,4.62
2023-02-22T19:59:44.987Z,4.12
2023-02-22T20:02:17.833Z,4.45
2023-02-22T20:04:50.278Z,3.90
2023-02-22T20:07:21.326Z,4.00
2023-02-22T20:09:52.493Z,5.17
2023-02-22T20:12:24.313Z,5.22
2023-02-22T20:14:58.476Z,4.67
2023-02-22T20:17:29.313Z,3.72
2023-02-22T20:20:00.113Z,4.22
2023-02-22T20:22:30.659Z,4.05
2023-02-22T20:25:02.507Z,4.42
2023-02-22T20:27:37.092Z,4.50
2023-02-22T20:30:09.214Z,4.42
2023-02-22T20:32:42.027Z,4.70
2023-02-22T20:35:12.837Z,4.60
2023-02-22T20:37:43.652Z,4.67
2023-02-22T20:40:15.295Z,4.30
2023-02-22T20:42:55.295Z,4.63
2023-02-22T20:45:22.584Z,4.78
2023-02-22T20:47:54.823Z,5.10
2023-02-22T20:50:26.685Z,5.17
2023-02-22T20:52:58.925Z,4.97
2023-02-22T20:55:31.249Z,5.08
2023-02-22T20:58:01.997Z,5.08
2023-02-22T21:00:35.562Z,5.35
2023-02-22T21:03:06.440Z,5.05
2023-02-22T21:05:43.072Z,5.20
2023-02-22T21:08:16.354Z,5.70
2023-02-22T21:10:53.482Z,5.50
2023-02-22T21:13:24.625Z,6.05
2023-02-22T21:15:58.051Z,5.67
2023-02-22T21:18:30.100Z,5.45
2023-02-22T21:21:10.636Z,5.40
2023-02-22T21:23:44.594Z,5.58
2023-02-22T21:26:18.950Z,5.60
2023-02-22T21:28:51.843Z,5.47
2023-02-22T21:31:25.359Z,5.87
2023-02-22T21:33:59.784Z,5.90
2023-02-22T21:36:31.811Z,6.00
2023-02-22T21:39:15.190Z,5.87
2023-02-22T21:41:48.051Z,6.28
2023-02-22T21:44:22.702Z,6.20
2023-02-22T21:46:57.760Z,6.67
2023-02-22T21:49:32.948Z,5.95
2023-02-22T21:52:05.647Z,6.00
2023-02-22T21:54:36.178Z,6.72
2023-02-22T21:57:10.666Z,6.90
2023-02-22T21:59:42.527Z,6.37
2023-02-22T22:02:14.566Z,6.40
2023-02-22T22:04:46.615Z,6.47
2023-02-22T22:07:20.799Z,7.30
2023-02-22T22:09:53.164Z,7.47
2023-02-22T22:12:34.135Z,6.77
2023-02-22T22:15:01.576Z,7.00
2023-02-22T22:17:36.585Z,7.40
2023-02-22T22:20:11.319Z,7.12
2023-02-22T22:22:47.453Z,7.90
2023-02-22T22:25:20.124Z,7.92
2023-02-22T22:27:52.408Z,8.28
2023-02-22T22:30:23.561Z,8.60
2023-02-22T22:32:54.234Z,7.90
2023-02-22T22:35:27.192Z,7.78
2023-02-22T22:37:59.806Z,8.00
2023-02-22T22:40:32.596Z,8.45
2023-02-22T22:43:04.233Z,8.90
2023-02-22T22:45:36.375Z,9.00
2023-02-22T22:48:08.726Z,8.38
2023-02-22T22:50:39.328Z,8.65
2023-02-22T22:53:11.104Z,8.70
2023-02-22T22:55:43.029Z,9.07
2023-02-22T22:58:14.540Z,9.25
2023-02-22T23:00:46.254Z,9.08
2023-02-22T23:03:18.757Z,8.98
2023-02-22T23:05:50.176Z,9.35
2023-02-22T23:08:22.536Z,9.15
2023-02-22T23:10:54.972Z,10.00
2023-02-22T23:13:25.757Z,9.45
2023-02-22T23:15:57.610Z,9.50
2023-02-22T23:18:28.671Z,9.78
2023-02-22T23:21:04.378Z,9.53
2023-02-22T23:23:34.881Z,9.10
2023-02-22T23:26:15.708Z,10.97
2023-02-22T23:28:48.618Z,9.70
2023-02-22T23:31:19.591Z,9.70
2023-02-22T23:33:50.811Z,9.57
2023-02-22T23:36:21.613Z,10.55
2023-02-22T23:38:52.264Z,10.35
2023-02-22T23:41:24.649Z,11.07
2023-02-22T23:43:56.210Z,10.32
2023-02-22T23:46:27.540Z,10.63
2023-02-22T23:48:59.878Z,11.70
2023-02-22T23:51:33.483Z,11.12
2023-02-22T23:54:04.018Z,10.78
2023-02-22T23:56:35.467Z,11.83
2023-02-22T23:59:09.318Z,12.28
